createdAt,value
2023-07-20T00:03:56.440Z,15.43
2023-07-20T00:06:24.794Z,12.20
2023-07-20T00:08:52.805Z,13.68
2023-07-20T00:11:20.415Z,10.07
2023-07-20T00:13:48.694Z,11.27
2023-07-20T00:16:16.319Z,10.48
2023-07-20T00:18:44.013Z,12.80
2023-07-20T00:21:13.078Z,9.77
2023-07-20T00:23:41.153Z,9.10
2023-07-20T00:26:08.843Z,12.57
2023-07-20T00:28:36.440Z,8.93
2023-07-20T00:31:04.223Z,13.45
2023-07-20T00:33:32.000Z,12.85
2023-07-20T00:36:00.259Z,9.13
2023-07-20T00:38:29.420Z,10.95
2023-07-20T00:40:56.966Z,9.80
2023-07-20T00:43:24.545Z,10.63
2023-07-20T00:45:52.341Z,9.23
2023-07-20T00:48:20.316Z,9.52
2023-07-20T00:50:49.055Z,10.70
2023-07-20T00:53:17.135Z,9.87
2023-07-20T00:55:46.983Z,10.27
2023-07-20T00:58:14.695Z,9.40
2023-07-20T01:00:42.262Z,11.20
2023-07-20T01:03:09.913Z,11.27
2023-07-20T01:05:48.138Z,11.20
2023-07-20T01:08:23.201Z,8.57
2023-07-20T01:10:58.776Z,10.32
2023-07-20T01:13:27.812Z,10.70
2023-07-20T01:15:58.903Z,11.45
2023-07-20T01:18:26.789Z,9.60
2023-07-20T01:20:58.290Z,9.77
2023-07-20T01:24:06.708Z,7.85
2023-07-20T01:29:51.331Z,10.80
2023-07-20T01:32:24.346Z,10.65
2023-07-20T01:34:55.757Z,8.48
2023-07-20T01:37:23.808Z,10.13
2023-07-20T01:39:51.670Z,8.93
2023-07-20T01:42:19.440Z,7.93
2023-07-20T01:44:46.980Z,9.02
2023-07-20T01:47:14.578Z,8.88
2023-07-20T01:49:43.690Z,10.00
2023-07-20T01:52:14.042Z,11.27
2023-07-20T01:54:42.363Z,8.10
2023-07-20T01:57:10.057Z,9.05
2023-07-20T01:59:37.612Z,9.68
2023-07-20T02:02:05.866Z,11.23
2023-07-20T02:04:33.406Z,8.93
2023-07-20T02:07:02.421Z,9.20
2023-07-20T02:09:29.979Z,11.68
2023-07-20T02:11:57.542Z,8.25
2023-07-20T02:14:25.197Z,8.82
2023-07-20T02:16:52.758Z,11.73
2023-07-20T02:19:22.010Z,6.95
2023-07-20T02:21:49.748Z,10.00
2023-07-20T02:24:18.814Z,8.10
2023-07-20T02:26:46.441Z,10.60
2023-07-20T02:29:14.604Z,8.10
2023-07-20T02:31:42.316Z,10.05
2023-07-20T02:34:10.141Z,8.13
2023-07-20T02:36:37.711Z,7.60
2023-07-20T02:39:05.659Z,9.55
2023-07-20T02:41:35.097Z,8.75
2023-07-20T02:44:02.721Z,8.18
2023-07-20T02:46:30.535Z,7.13
2023-07-20T02:48:59.779Z,8.02
2023-07-20T02:51:27.417Z,7.03
2023-07-20T02:53:54.983Z,8.50
2023-07-20T02:56:22.772Z,7.55
2023-07-20T02:58:52.058Z,8.23
2023-07-20T03:01:19.870Z,8.20
2023-07-20T03:03:47.616Z,7.88
2023-07-20T03:06:15.659Z,7.38
2023-07-20T03:08:44.204Z,7.95
2023-07-20T03:11:11.866Z,8.30
2023-07-20T03:13:40.697Z,9.02
2023-07-20T03:16:09.898Z,8.35
2023-07-20T03:18:37.755Z,7.18
2023-07-20T03:21:05.445Z,9.10
2023-07-20T03:23:33.720Z,7.28
2023-07-20T03:26:01.985Z,7.78
2023-07-20T03:28:29.650Z,10.40
2023-07-20T03:30:58.036Z,8.23
2023-07-20T03:35:57.280Z,8.75
2023-07-20T03:38:25.443Z,8.00
2023-07-20T03:40:53.526Z,8.32
2023-07-20T03:43:21.442Z,8.57
2023-07-20T03:45:49.656Z,8.93
2023-07-20T03:48:18.218Z,8.20
2023-07-20T03:50:48.529Z,8.65
2023-07-20T03:53:17.032Z,8.25
2023-07-20T03:55:46.553Z,7.03
2023-07-20T03:58:14.541Z,8.35
2023-07-20T04:00:45.723Z,6.75
2023-07-20T04:03:13.503Z,9.25
2023-07-20T04:05:41.400Z,8.60
2023-07-20T04:08:10.630Z,7.80
2023-07-20T04:10:38.290Z,7.95
2023-07-20T04:13:06.065Z,9.07
2023-07-20T04:15:33.892Z,9.38
2023-07-20T04:18:01.701Z,8.65
2023-07-20T04:20:29.575Z,9.50
2023-07-20T04:22:57.194Z,7.68
2023-07-20T04:25:27.027Z,7.80
2023-07-20T04:27:54.781Z,8.25
2023-07-20T04:30:22.706Z,10.77
2023-07-20T04:32:50.753Z,9.15
2023-07-20T04:35:39.928Z,9.25
2023-07-20T04:38:09.770Z,8.98
2023-07-20T04:40:39.550Z,9.98
2023-07-20T04:43:07.229Z,10.68
2023-07-20T04:45:35.515Z,14.00
2023-07-20T04:48:03.299Z,11.13
2023-07-20T04:50:32.263Z,9.85
2023-07-20T04:52:59.957Z,11.60
2023-07-20T04:55:27.966Z,12.90
2023-07-20T04:57:58.398Z,12.50
2023-07-20T05:00:27.362Z,10.10
2023-07-20T05:02:55.021Z,10.80
2023-07-20T05:05:22.761Z,9.30
2023-07-20T05:07:50.496Z,11.88
2023-07-20T05:10:18.406Z,12.00
2023-07-20T05:12:45.991Z,12.00
2023-07-20T05:15:15.533Z,11.45
2023-07-20T05:20:11.321Z,17.63
2023-07-20T05:22:39.146Z,17.48
2023-07-20T05:25:08.362Z,15.52
2023-07-20T05:27:36.292Z,23.13
2023-07-20T05:30:04.292Z,15.98
2023-07-20T05:32:33.336Z,18.23
2023-07-20T05:35:01.530Z,15.82
2023-07-20T05:37:29.144Z,15.45
2023-07-20T05:39:57.305Z,10.43
2023-07-20T05:42:24.888Z,17.35
2023-07-20T05:44:52.437Z,28.48
2023-07-20T05:47:19.981Z,28.85
2023-07-20T05:49:49.314Z,27.88
2023-07-20T05:52:17.136Z,21.05
2023-07-20T05:54:44.735Z,25.17
2023-07-20T05:57:12.373Z,17.02
2023-07-20T05:59:40.475Z,17.63
2023-07-20T06:02:08.569Z,15.32
2023-07-20T06:04:36.148Z,14.02
2023-07-20T06:07:05.483Z,15.38
2023-07-20T06:09:33.089Z,23.17
2023-07-20T06:12:00.975Z,14.43
2023-07-20T06:14:28.524Z,21.38
2023-07-20T06:16:56.086Z,15.48
2023-07-20T06:19:23.758Z,14.80
2023-07-20T06:21:51.357Z,17.83
2023-07-20T06:24:20.525Z,17.98
2023-07-20T06:26:48.628Z,28.00
2023-07-20T06:29:16.222Z,25.85
2023-07-20T06:31:43.945Z,14.75
2023-07-20T06:34:11.660Z,14.93
2023-07-20T06:36:39.328Z,18.17
2023-07-20T06:44:09.964Z,12.00
2023-07-20T06:46:37.605Z,26.08
2023-07-20T06:51:38.487Z,10.23
2023-07-20T06:54:06.116Z,8.63
2023-07-20T06:56:34.283Z,14.48
2023-07-20T06:59:03.661Z,21.00
2023-07-20T07:01:31.261Z,22.23
2023-07-20T07:03:59.019Z,15.93
2023-07-20T07:06:26.980Z,12.02
2023-07-20T07:08:54.689Z,10.23
2023-07-20T07:11:23.144Z,11.38
2023-07-20T07:13:51.222Z,11.63
2023-07-20T07:16:21.205Z,11.13
2023-07-20T07:18:49.404Z,12.02
2023-07-20T07:21:17.023Z,8.77
2023-07-20T07:23:44.998Z,10.25
2023-07-20T07:26:12.795Z,17.30
2023-07-20T07:28:40.348Z,20.55
2023-07-20T07:31:09.006Z,23.38
2023-07-20T07:33:38.151Z,15.27
2023-07-20T07:36:06.410Z,14.10
2023-07-20T07:39:07.290Z,14.45
2023-07-20T07:41:21.710Z,11.48
2023-07-20T07:43:49.261Z,13.43
2023-07-20T07:46:16.993Z,12.02
2023-07-20T07:48:46.044Z,10.30
2023-07-20T07:51:13.796Z,11.32
2023-07-20T07:53:41.516Z,13.02
2023-07-20T07:56:09.197Z,12.73
2023-07-20T07:58:36.786Z,12.50
2023-07-20T08:01:04.509Z,8.00
2023-07-20T08:03:32.157Z,9.93
2023-07-20T08:06:01.297Z,12.57
2023-07-20T08:08:28.916Z,10.05
2023-07-20T08:10:56.502Z,13.18
2023-07-20T08:13:24.185Z,10.60
2023-07-20T08:15:52.765Z,10.55
2023-07-20T08:18:20.539Z,11.75
2023-07-20T08:20:48.969Z,12.88
2023-07-20T08:23:18.047Z,9.75
2023-07-20T08:25:45.592Z,13.82
2023-07-20T08:28:15.441Z,12.98
2023-07-20T08:30:44.084Z,18.38
2023-07-20T08:33:15.308Z,13.93
2023-07-20T08:35:43.106Z,10.90
2023-07-20T08:38:10.708Z,10.43
2023-07-20T08:40:43.497Z,9.35
2023-07-20T08:43:12.353Z,9.05
2023-07-20T08:45:41.302Z,9.25
2023-07-20T08:48:09.513Z,11.18
2023-07-20T08:50:37.342Z,10.15
2023-07-20T08:53:05.308Z,10.82
2023-07-20T08:55:32.947Z,9.40
2023-07-20T08:58:04.270Z,11.48
2023-07-20T09:00:32.356Z,8.85
2023-07-20T09:03:02.102Z,10.35
2023-07-20T09:05:29.725Z,9.00
2023-07-20T09:07:57.319Z,11.75
2023-07-20T09:10:25.724Z,10.73
2023-07-20T09:12:53.462Z,12.02
2023-07-20T09:15:23.895Z,10.45
2023-07-20T09:17:52.478Z,16.10
2023-07-20T09:20:22.958Z,20.33
2023-07-20T09:22:52.871Z,14.23
2023-07-20T09:25:22.592Z,14.75
2023-07-20T09:27:52.489Z,18.88
2023-07-20T09:30:31.642Z,11.93
2023-07-20T09:33:00.276Z,16.90
2023-07-20T09:35:35.550Z,12.20
2023-07-20T09:50:52.351Z,12.25
2023-07-20T09:53:20.870Z,14.48
2023-07-20T09:55:49.256Z,14.85
2023-07-20T09:58:18.023Z,16.63
2023-07-20T10:00:53.789Z,13.57
2023-07-20T10:03:23.285Z,15.35
2023-07-20T10:05:55.823Z,9.75
2023-07-20T10:11:00.323Z,15.95
2023-07-20T10:13:29.046Z,8.13
2023-07-20T10:16:04.047Z,9.17
2023-07-20T10:18:39.764Z,9.77
2023-07-20T10:23:40.264Z,12.15
2023-07-20T10:26:08.572Z,10.80
2023-07-20T10:28:36.862Z,35.33
2023-07-20T10:31:07.310Z,13.00
2023-07-20T10:33:35.365Z,36.90
2023-07-20T10:36:04.771Z,23.17
2023-07-20T10:38:43.067Z,19.05
2023-07-20T10:41:21.543Z,14.27
2023-07-20T10:43:50.140Z,17.63
2023-07-20T10:46:35.303Z,43.38
2023-07-20T10:49:04.283Z,45.25
2023-07-20T10:51:39.639Z,35.35
2023-07-20T10:54:09.929Z,25.20
2023-07-20T10:59:19.341Z,21.77
2023-07-20T11:01:49.107Z,14.57
2023-07-20T11:04:17.239Z,13.93
2023-07-20T11:06:45.444Z,11.38
2023-07-20T11:09:14.185Z,11.02
2023-07-20T11:11:43.015Z,12.63
2023-07-20T11:14:11.735Z,18.55
2023-07-20T11:16:41.366Z,24.03
2023-07-20T11:22:06.732Z,12.45
2023-07-20T11:24:34.597Z,13.18
2023-07-20T11:27:02.617Z,15.32
2023-07-20T11:29:33.577Z,16.13
2023-07-20T11:32:03.438Z,12.63
2023-07-20T11:34:35.817Z,15.40
2023-07-20T11:39:34.470Z,12.65
2023-07-20T11:42:02.185Z,11.77
2023-07-20T11:44:31.164Z,10.45
2023-07-20T11:47:02.993Z,10.07
2023-07-20T11:49:31.802Z,11.93
2023-07-20T11:52:03.164Z,11.55
2023-07-20T11:54:31.500Z,10.32
2023-07-20T11:57:02.578Z,11.70
2023-07-20T11:59:30.269Z,11.85
2023-07-20T12:01:57.937Z,12.55
2023-07-20T12:04:25.618Z,13.38
2023-07-20T12:06:55.128Z,11.55
2023-07-20T12:11:52.250Z,10.20
2023-07-20T12:14:19.803Z,13.32
2023-07-20T12:16:54.666Z,9.65
2023-07-20T12:19:22.257Z,8.93
2023-07-20T12:21:49.783Z,13.80
2023-07-20T12:24:19.397Z,9.60
2023-07-20T12:29:15.622Z,9.23
2023-07-20T12:31:43.261Z,12.32
2023-07-20T12:34:10.826Z,10.48
2023-07-20T12:36:38.677Z,12.45
2023-07-20T12:39:06.288Z,17.67
2023-07-20T12:41:33.868Z,10.82
2023-07-20T12:44:02.876Z,11.80
2023-07-20T12:46:30.546Z,11.80
2023-07-20T12:48:58.132Z,13.73
2023-07-20T12:51:25.842Z,9.38
2023-07-20T12:53:53.426Z,7.82
2023-07-20T12:58:51.896Z,9.32
2023-07-20T13:01:21.014Z,8.93
2023-07-20T13:08:49.560Z,8.45
2023-07-20T13:11:17.133Z,8.50
2023-07-20T13:13:44.691Z,12.80
2023-07-20T13:16:12.331Z,12.23
2023-07-20T13:18:41.390Z,12.02
2023-07-20T13:21:08.959Z,12.10
2023-07-20T13:23:36.537Z,12.23
2023-07-20T13:26:04.309Z,7.13
2023-07-20T13:28:31.896Z,11.88
2023-07-20T13:30:59.586Z,14.90
2023-07-20T13:33:28.958Z,13.52
2023-07-20T13:35:58.476Z,9.45
2023-07-20T13:38:26.060Z,7.10
2023-07-20T13:40:53.633Z,12.55
2023-07-20T13:43:21.173Z,9.30
2023-07-20T13:45:49.338Z,9.57
2023-07-20T13:48:18.036Z,9.07
2023-07-20T13:51:00.300Z,8.10
2023-07-20T13:58:31.982Z,7.18
2023-07-20T14:00:59.757Z,8.88
2023-07-20T14:03:27.465Z,11.50
2023-07-20T14:08:25.512Z,10.57
2023-07-20T14:13:37.897Z,8.13
2023-07-20T14:16:09.767Z,8.77
2023-07-20T14:18:37.441Z,9.05
2023-07-20T14:21:05.088Z,9.98
2023-07-20T14:23:32.657Z,8.85
2023-07-20T14:26:01.634Z,8.77
2023-07-20T14:28:29.231Z,10.38
2023-07-20T14:30:56.807Z,4.28
2023-07-20T14:33:24.448Z,7.88
2023-07-20T14:35:52.154Z,13.27
2023-07-20T14:38:19.794Z,7.35
2023-07-20T14:40:47.359Z,9.73
2023-07-20T14:43:16.417Z,7.15
2023-07-20T14:45:44.056Z,7.38
2023-07-20T14:48:11.718Z,12.65
2023-07-20T14:50:39.363Z,13.93
2023-07-20T14:53:07.110Z,13.25
2023-07-20T14:55:34.948Z,10.88
2023-07-20T14:58:02.498Z,9.65
2023-07-20T15:00:31.646Z,10.40
2023-07-20T15:02:59.272Z,9.32
2023-07-20T15:05:27.049Z,9.93
2023-07-20T15:07:54.948Z,8.18
2023-07-20T15:10:22.632Z,6.22
2023-07-20T15:12:50.186Z,8.80
2023-07-20T15:15:17.927Z,9.07
2023-07-20T15:17:47.190Z,13.95
2023-07-20T15:20:15.514Z,10.18
2023-07-20T15:22:43.281Z,9.25
2023-07-20T15:25:12.202Z,8.57
2023-07-20T15:27:41.280Z,7.55
2023-07-20T15:30:11.037Z,8.70
2023-07-20T15:35:11.520Z,6.18
2023-07-20T15:37:39.089Z,6.45
2023-07-20T15:40:08.203Z,5.80
2023-07-20T15:42:38.666Z,6.30
2023-07-20T15:45:07.620Z,4.53
2023-07-20T15:47:35.351Z,8.13
2023-07-20T15:50:03.100Z,7.45
2023-07-20T15:52:32.463Z,7.65
2023-07-20T15:55:00.113Z,4.93
2023-07-20T15:57:27.726Z,9.70
2023-07-20T15:59:55.243Z,12.05
2023-07-20T16:02:22.818Z,6.05
2023-07-20T16:04:53.558Z,6.75
2023-07-20T16:07:21.769Z,6.80
2023-07-20T16:09:50.854Z,7.07
2023-07-20T16:12:18.730Z,3.63
2023-07-20T16:17:16.689Z,5.82
2023-07-20T16:19:44.283Z,4.97
2023-07-20T16:22:11.813Z,5.28
2023-07-20T16:24:39.468Z,6.80
2023-07-20T16:27:08.837Z,7.72
2023-07-20T16:29:36.511Z,4.45
2023-07-20T16:34:48.595Z,8.45
2023-07-20T16:39:51.703Z,6.63
2023-07-20T16:43:06.147Z,6.75
2023-07-20T16:45:09.499Z,6.38
2023-07-20T16:47:37.192Z,5.82
2023-07-20T16:50:05.802Z,5.53
2023-07-20T16:52:33.376Z,5.22
2023-07-20T16:55:01.012Z,6.60
2023-07-20T16:57:30.101Z,3.95
2023-07-20T16:59:57.819Z,6.25
2023-07-20T17:02:25.486Z,4.55
2023-07-20T17:04:53.425Z,5.50
2023-07-20T17:07:21.122Z,5.10
2023-07-20T17:09:48.706Z,3.72
2023-07-20T17:12:16.287Z,5.55
2023-07-20T17:14:45.339Z,6.45
2023-07-20T17:17:12.909Z,5.45
2023-07-20T17:19:40.603Z,5.55
2023-07-20T17:22:08.254Z,7.47
2023-07-20T17:29:37.299Z,4.47
2023-07-20T17:32:07.573Z,6.18
2023-07-20T17:34:35.299Z,7.00
2023-07-20T17:43:06.803Z,7.13
2023-07-20T17:44:53.185Z,4.50
2023-07-20T17:47:22.234Z,5.10
2023-07-20T17:49:49.938Z,11.00
2023-07-20T17:52:17.491Z,5.63
2023-07-20T17:54:45.088Z,5.10
2023-07-20T17:57:12.690Z,4.88
2023-07-20T18:02:10.953Z,7.53
2023-07-20T18:04:40.566Z,5.03
2023-07-20T18:09:35.350Z,5.65
2023-07-20T18:12:02.939Z,7.43
2023-07-20T18:14:30.494Z,6.40
2023-07-20T18:16:58.091Z,6.05
2023-07-20T18:19:25.638Z,6.25
2023-07-20T18:21:54.616Z,7.03
2023-07-20T18:24:22.214Z,7.10
2023-07-20T18:26:49.799Z,7.32
2023-07-20T18:29:17.373Z,8.00
2023-07-20T18:31:45.058Z,6.32
2023-07-20T18:34:12.721Z,6.00
2023-07-20T18:36:40.239Z,6.53
2023-07-20T18:39:09.277Z,9.98
2023-07-20T18:41:37.303Z,7.00
2023-07-20T18:44:05.050Z,9.30
2023-07-20T18:46:32.613Z,5.13
2023-07-20T18:49:00.815Z,5.68
2023-07-20T18:51:28.374Z,6.25
2023-07-20T18:53:56.032Z,4.82
2023-07-20T18:56:25.068Z,5.55
2023-07-20T18:58:52.758Z,5.30
2023-07-20T19:01:20.751Z,6.18
2023-07-20T19:03:48.588Z,3.75
2023-07-20T19:06:16.214Z,3.90
2023-07-20T19:08:43.822Z,6.20
2023-07-20T19:13:43.638Z,6.75
2023-07-20T19:16:11.486Z,4.93
2023-07-20T19:18:39.217Z,3.90
2023-07-20T19:21:06.867Z,8.90
2023-07-20T19:23:34.723Z,6.15
2023-07-20T19:26:06.621Z,5.15
2023-07-20T19:28:34.696Z,7.93
2023-07-20T19:31:03.946Z,5.55
2023-07-20T19:33:32.020Z,7.43
2023-07-20T19:36:02.899Z,7.00
2023-07-20T19:38:30.446Z,6.03
2023-07-20T19:40:58.182Z,7.82
2023-07-20T19:43:25.772Z,6.30
2023-07-20T19:45:53.345Z,4.32
2023-07-20T19:48:22.492Z,6.15
2023-07-20T19:50:50.468Z,6.82
2023-07-20T19:55:49.821Z,8.82
2023-07-20T19:58:18.427Z,6.28
2023-07-20T20:05:48.778Z,7.47
2023-07-20T20:08:16.296Z,7.03
2023-07-20T20:13:14.252Z,6.55
2023-07-20T20:15:42.486Z,6.15
2023-07-20T20:18:10.083Z,6.85
2023-07-20T20:20:37.670Z,6.43
2023-07-20T20:23:17.298Z,5.70
2023-07-20T20:28:12.158Z,4.60
2023-07-20T20:30:39.754Z,6.57
2023-07-20T20:33:07.673Z,5.47
2023-07-20T20:35:35.562Z,7.50
2023-07-20T20:38:03.389Z,12.90
2023-07-20T20:40:32.374Z,14.35
2023-07-20T20:42:59.898Z,21.95
2023-07-20T20:45:27.469Z,15.85
2023-07-20T20:47:55.102Z,12.02
2023-07-20T20:50:22.768Z,6.03
2023-07-20T20:52:50.467Z,8.88
2023-07-20T20:55:18.043Z,9.27
2023-07-20T20:57:48.851Z,5.35
2023-07-20T21:00:17.468Z,6.88
2023-07-20T21:02:47.361Z,5.25
2023-07-20T21:05:15.344Z,5.07
2023-07-20T21:07:43.431Z,6.13
2023-07-20T21:10:11.228Z,6.53
2023-07-20T21:12:38.809Z,8.85
2023-07-20T21:15:10.254Z,8.07
2023-07-20T21:17:38.135Z,8.13
2023-07-20T21:20:07.180Z,4.80
2023-07-20T21:22:35.185Z,5.47
2023-07-20T21:25:02.745Z,5.72
2023-07-20T21:27:30.311Z,5.18
2023-07-20T21:29:57.862Z,4.75
2023-07-20T21:32:26.940Z,4.40
2023-07-20T21:34:54.462Z,4.03
2023-07-20T21:37:22.040Z,4.95
2023-07-20T21:39:49.553Z,4.75
2023-07-20T21:42:17.122Z,6.90
2023-07-20T21:44:44.866Z,6.20
2023-07-20T21:47:12.529Z,6.63
2023-07-20T21:49:42.072Z,4.53
2023-07-20T21:52:09.632Z,7.78
2023-07-20T21:54:37.721Z,5.22
2023-07-20T21:57:05.473Z,6.75
2023-07-20T21:59:33.015Z,5.03
2023-07-20T22:02:00.759Z,7.80
2023-07-20T22:04:28.643Z,5.85
2023-07-20T22:06:57.871Z,6.50
2023-07-20T22:09:25.516Z,4.03
2023-07-20T22:11:53.092Z,6.65
2023-07-20T22:14:20.697Z,6.50
2023-07-20T22:16:48.329Z,10.05
2023-07-20T22:19:16.040Z,7.60
2023-07-20T22:21:44.054Z,8.52
2023-07-20T22:24:13.096Z,9.50
2023-07-20T22:26:40.672Z,10.15
2023-07-20T22:29:08.255Z,10.85
2023-07-20T22:31:36.129Z,9.75
2023-07-20T22:34:04.022Z,12.13
2023-07-20T22:36:31.588Z,10.60
2023-07-20T22:38:59.437Z,11.02
2023-07-20T22:41:28.465Z,10.20
2023-07-20T22:43:56.030Z,10.70
2023-07-20T22:46:24.132Z,9.23
2023-07-20T22:48:52.052Z,8.75
2023-07-20T22:51:19.731Z,10.30
2023-07-20T22:53:47.311Z,8.10
2023-07-20T22:56:14.873Z,7.50
2023-07-20T22:58:43.953Z,9.02
2023-07-20T23:01:12.036Z,7.20
2023-07-20T23:03:40.268Z,7.57
2023-07-20T23:06:07.917Z,6.05
2023-07-20T23:08:35.484Z,6.88
2023-07-20T23:11:03.250Z,4.95
2023-07-20T23:13:30.815Z,5.90
2023-07-20T23:15:59.867Z,8.07
2023-07-20T23:18:27.433Z,5.53
2023-07-20T23:20:55.117Z,6.22
2023-07-20T23:23:22.781Z,5.50
2023-07-20T23:25:53.193Z,5.68
2023-07-20T23:28:21.417Z,6.43
2023-07-20T23:30:49.138Z,5.68
2023-07-20T23:33:21.937Z,5.60
2023-07-20T23:35:50.861Z,5.95
2023-07-20T23:38:19.081Z,5.00
2023-07-20T23:40:46.676Z,4.75
2023-07-20T23:43:14.298Z,5.32
2023-07-20T23:45:41.881Z,4.05
2023-07-20T23:48:09.736Z,5.03
2023-07-20T23:50:38.850Z,4.18
2023-07-20T23:53:06.429Z,4.07
2023-07-20T23:55:34.011Z,4.45
2023-07-20T23:58:01.583Z,4.43
